createdAt,value
2023-02-17T00:00:44.573Z,99.02
2023-02-17T00:01:44.820Z,98.91
2023-02-17T00:02:44.618Z,98.91
2023-02-17T00:03:44.871Z,98.81
2023-02-17T00:04:44.586Z,98.81
2023-02-17T00:05:44.828Z,98.71
2023-02-17T00:07:04.626Z,98.61
2023-02-17T00:07:44.862Z,98.61
2023-02-17T00:08:44.630Z,98.50
2023-02-17T00:09:44.384Z,98.30
2023-02-17T00:10:44.661Z,98.20
2023-02-17T00:11:44.415Z,98.10
2023-02-17T00:12:44.685Z,97.99
2023-02-17T00:13:44.448Z,97.99
2023-02-17T00:14:44.709Z,97.99
2023-02-17T00:15:44.490Z,97.99
2023-02-17T00:17:04.742Z,97.89
2023-02-17T00:17:44.468Z,97.89
2023-02-17T00:18:44.737Z,97.85
2023-02-17T00:19:43.816Z,97.95
2023-02-17T00:20:43.783Z,97.95
2023-02-17T00:21:44.525Z,97.95
2023-02-17T00:22:44.292Z,97.95
2023-02-17T00:23:44.546Z,97.95
2023-02-17T00:24:44.310Z,97.95
2023-02-17T00:25:44.566Z,98.05
2023-02-17T00:27:04.340Z,97.95
2023-02-17T00:27:44.571Z,97.95
2023-02-17T00:28:44.367Z,98.15
2023-02-17T00:29:44.595Z,98.15
2023-02-17T00:30:44.364Z,98.15
2023-02-17T00:31:44.756Z,98.15
2023-02-17T00:32:44.390Z,98.15
2023-02-17T00:33:44.119Z,98.25
2023-02-17T00:34:44.385Z,98.15
2023-02-17T00:35:44.123Z,98.05
2023-02-17T00:37:04.420Z,98.15
2023-02-17T00:37:44.138Z,98.15
2023-02-17T00:38:44.398Z,98.15
2023-02-17T00:39:44.151Z,98.15
2023-02-17T00:40:44.425Z,98.15
2023-02-17T00:41:44.167Z,98.05
2023-02-17T00:42:44.508Z,97.95
2023-02-17T00:43:44.247Z,97.89
2023-02-17T00:44:44.519Z,97.85
2023-02-17T00:45:44.271Z,97.79
2023-02-17T00:47:06.001Z,97.69
2023-02-17T00:47:44.293Z,97.58
2023-02-17T00:48:44.117Z,97.58
2023-02-17T00:49:44.318Z,97.38
2023-02-17T00:50:44.081Z,96.97
2023-02-17T00:51:44.318Z,96.97
2023-02-17T00:52:44.091Z,96.87
2023-02-17T00:53:44.358Z,96.67
2023-02-17T00:54:44.112Z,96.56
2023-02-17T00:55:44.379Z,96.42
2023-02-17T00:57:04.176Z,96.21
2023-02-17T00:57:43.895Z,96.21
2023-02-17T00:58:44.165Z,96.11
2023-02-17T00:59:43.916Z,95.90
2023-02-17T01:00:44.171Z,95.70
2023-02-17T01:01:43.990Z,95.70
2023-02-17T01:02:44.182Z,95.60
2023-02-17T01:03:43.929Z,95.39
2023-02-17T01:04:44.220Z,95.39
2023-02-17T01:05:43.958Z,95.29
2023-02-17T01:07:04.233Z,95.09
2023-02-17T01:07:43.973Z,94.98
2023-02-17T01:08:44.240Z,94.98
2023-02-17T01:09:43.976Z,94.89
2023-02-17T01:10:44.251Z,94.78
2023-02-17T01:11:44.010Z,94.78
2023-02-17T01:12:44.283Z,94.78
2023-02-17T01:13:44.035Z,94.68
2023-02-17T01:14:43.830Z,94.68
2023-02-17T01:15:44.065Z,94.58
2023-02-17T01:17:03.860Z,94.58
2023-02-17T01:17:44.080Z,94.58
2023-02-17T01:18:43.842Z,94.48
2023-02-17T01:19:44.100Z,94.48
2023-02-17T01:20:43.865Z,94.48
2023-02-17T01:21:44.131Z,94.48
2023-02-17T01:22:43.893Z,94.48
2023-02-17T01:23:43.627Z,94.48
2023-02-17T01:24:43.902Z,94.58
2023-02-17T01:25:43.631Z,94.68
2023-02-17T01:27:03.924Z,94.68
2023-02-17T01:27:43.665Z,94.78
2023-02-17T01:28:43.943Z,94.78
2023-02-17T01:29:43.691Z,94.78
2023-02-17T01:30:43.988Z,94.98
2023-02-17T01:31:43.750Z,94.98
2023-02-17T01:32:43.978Z,95.09
2023-02-17T01:33:43.714Z,95.19
2023-02-17T01:34:43.994Z,95.19
2023-02-17T01:35:43.741Z,95.19
2023-02-17T01:37:04.037Z,95.29
2023-02-17T01:37:43.743Z,95.29
2023-02-17T01:38:43.524Z,95.29
2023-02-17T01:39:43.759Z,95.29
2023-02-17T01:40:43.524Z,95.29
2023-02-17T01:41:43.777Z,95.39
2023-02-17T01:42:43.520Z,95.39
2023-02-17T01:43:43.762Z,95.39
2023-02-17T01:44:43.531Z,95.39
2023-02-17T01:45:43.792Z,95.39
2023-02-17T01:47:03.569Z,95.39
2023-02-17T01:47:43.829Z,95.39
2023-02-17T01:48:43.596Z,95.39
2023-02-17T01:49:43.344Z,95.39
2023-02-17T01:50:43.591Z,95.39
2023-02-17T01:51:43.372Z,95.39
2023-02-17T01:52:43.613Z,95.29
2023-02-17T01:53:43.378Z,95.29
2023-02-17T01:54:43.650Z,95.29
2023-02-17T01:55:43.406Z,95.19
2023-02-17T01:57:03.670Z,95.19
2023-02-17T01:57:43.418Z,95.09
2023-02-17T01:58:43.674Z,95.09
2023-02-17T01:59:43.450Z,95.09
2023-02-17T02:00:43.692Z,95.13
2023-02-17T02:01:43.583Z,95.19
2023-02-17T02:02:43.263Z,95.23
2023-02-17T02:03:43.475Z,95.13
2023-02-17T02:04:43.225Z,95.13
2023-02-17T02:05:43.501Z,94.89
2023-02-17T02:07:03.280Z,94.93
2023-02-17T02:07:43.533Z,94.78
2023-02-17T02:08:43.302Z,94.82
2023-02-17T02:09:43.551Z,94.58
2023-02-17T02:10:43.298Z,94.62
2023-02-17T02:11:43.564Z,94.52
2023-02-17T02:12:43.327Z,94.52
2023-02-17T02:13:43.588Z,94.52
2023-02-17T02:14:43.342Z,94.32
2023-02-17T02:15:43.110Z,94.32
2023-02-17T02:17:03.368Z,94.21
2023-02-17T02:17:43.134Z,94.21
2023-02-17T02:18:42.541Z,94.21
2023-02-17T02:19:42.556Z,94.21
2023-02-17T02:20:43.310Z,94.07
2023-02-17T02:21:43.078Z,94.01
2023-02-17T02:22:43.502Z,93.80
2023-02-17T02:23:42.521Z,93.80
2023-02-17T02:24:43.284Z,93.60
2023-02-17T02:25:43.043Z,93.60
2023-02-17T02:27:03.341Z,93.29
2023-02-17T02:27:42.492Z,93.29
2023-02-17T02:28:43.233Z,93.19
2023-02-17T02:29:43.024Z,92.88
2023-02-17T02:30:43.290Z,92.64
2023-02-17T02:31:43.093Z,92.64
2023-02-17T02:32:43.288Z,92.54
2023-02-17T02:33:43.069Z,92.43
2023-02-17T02:34:43.325Z,92.43
2023-02-17T02:35:43.087Z,92.33
2023-02-17T02:37:03.362Z,92.23
2023-02-17T02:37:43.101Z,92.33
2023-02-17T02:38:42.843Z,92.37
2023-02-17T02:39:43.120Z,92.37
2023-02-17T02:40:42.859Z,92.37
2023-02-17T02:41:43.125Z,92.37
2023-02-17T02:42:42.869Z,92.37
2023-02-17T02:43:43.137Z,92.27
2023-02-17T02:44:42.878Z,92.27
2023-02-17T02:45:43.174Z,92.27
2023-02-17T02:47:02.910Z,91.96
2023-02-17T02:47:43.177Z,91.96
2023-02-17T02:48:42.917Z,91.96
2023-02-17T02:49:43.169Z,91.96
2023-02-17T02:50:42.920Z,91.96
2023-02-17T02:51:43.192Z,91.96
2023-02-17T02:52:42.939Z,91.96
2023-02-17T02:53:42.700Z,92.17
2023-02-17T02:54:42.931Z,92.27
2023-02-17T02:55:42.731Z,92.27
2023-02-17T02:57:02.984Z,92.37
2023-02-17T02:57:42.724Z,92.37
2023-02-17T02:58:43.260Z,92.58
2023-02-17T02:59:42.744Z,92.68
2023-02-17T03:00:42.986Z,92.68
2023-02-17T03:01:42.743Z,92.68
2023-02-17T03:02:42.984Z,92.58
2023-02-17T03:03:42.840Z,92.58
2023-02-17T03:04:43.000Z,92.58
2023-02-17T03:05:42.766Z,92.68
2023-02-17T03:07:03.056Z,92.78
2023-02-17T03:07:42.781Z,92.78
2023-02-17T03:08:42.532Z,92.99
2023-02-17T03:09:42.797Z,93.09
2023-02-17T03:10:42.563Z,93.09
2023-02-17T03:11:42.859Z,93.19
2023-02-17T03:12:42.597Z,92.99
2023-02-17T03:13:42.865Z,92.88
2023-02-17T03:14:42.595Z,92.78
2023-02-17T03:15:42.886Z,92.68
2023-02-17T03:17:02.631Z,92.58
2023-02-17T03:17:42.958Z,92.47
2023-02-17T03:18:42.681Z,92.27
2023-02-17T03:19:42.480Z,92.27
2023-02-17T03:20:42.701Z,92.37
2023-02-17T03:21:42.474Z,92.37
2023-02-17T03:22:42.730Z,92.37
2023-02-17T03:23:42.559Z,92.47
2023-02-17T03:24:42.836Z,92.52
2023-02-17T03:25:42.625Z,92.52
2023-02-17T03:27:02.914Z,92.52
2023-02-17T03:27:42.751Z,92.62
2023-02-17T03:28:42.494Z,92.72
2023-02-17T03:29:42.816Z,92.83
2023-02-17T03:30:42.594Z,92.83
2023-02-17T03:31:42.535Z,92.83
2023-02-17T03:32:42.689Z,92.83
2023-02-17T03:33:42.481Z,92.93
2023-02-17T03:34:42.808Z,92.93
2023-02-17T03:35:42.604Z,93.03
2023-02-17T03:37:02.395Z,93.13
2023-02-17T03:37:42.712Z,93.24
2023-02-17T03:38:42.552Z,93.33
2023-02-17T03:39:42.330Z,93.33
2023-02-17T03:40:42.600Z,93.33
2023-02-17T03:41:42.420Z,93.29
2023-02-17T03:42:42.656Z,93.44
2023-02-17T03:43:42.458Z,93.44
2023-02-17T03:44:42.278Z,93.44
2023-02-17T03:45:42.612Z,93.40
2023-02-17T03:47:02.302Z,93.54
2023-02-17T03:47:42.610Z,93.50
2023-02-17T03:48:42.384Z,93.65
2023-02-17T03:49:42.154Z,93.65
2023-02-17T03:50:42.438Z,93.65
2023-02-17T03:51:42.248Z,93.65
2023-02-17T03:52:42.491Z,93.74
2023-02-17T03:53:42.281Z,93.74
2023-02-17T03:54:42.095Z,93.74
2023-02-17T03:55:42.363Z,93.85
2023-02-17T03:57:02.200Z,93.80
2023-02-17T03:57:42.443Z,93.91
2023-02-17T03:58:42.196Z,93.91
2023-02-17T03:59:42.496Z,93.95
2023-02-17T04:00:42.259Z,93.85
2023-02-17T04:01:42.070Z,93.95
2023-02-17T04:02:44.207Z,93.85
2023-02-17T04:03:42.051Z,93.85
2023-02-17T04:04:42.260Z,93.74
2023-02-17T04:05:42.024Z,93.74
2023-02-17T04:07:02.280Z,93.74
2023-02-17T04:07:42.031Z,93.74
2023-02-17T04:08:42.268Z,93.65
2023-02-17T04:09:42.040Z,93.54
2023-02-17T04:10:42.256Z,93.54
2023-02-17T04:11:42.022Z,93.44
2023-02-17T04:12:42.285Z,93.44
2023-02-17T04:13:42.029Z,93.44
2023-02-17T04:14:42.257Z,93.44
2023-02-17T04:15:43.079Z,93.33
2023-02-17T04:17:02.313Z,93.44
2023-02-17T04:17:42.062Z,93.44
2023-02-17T04:18:41.813Z,93.33
2023-02-17T04:19:42.076Z,93.33
2023-02-17T04:20:41.821Z,93.33
2023-02-17T04:21:42.094Z,93.24
2023-02-17T04:22:41.861Z,93.24
2023-02-17T04:23:42.103Z,93.24
2023-02-17T04:24:41.840Z,93.24
2023-02-17T04:25:42.113Z,93.24
2023-02-17T04:27:01.854Z,93.24
2023-02-17T04:27:42.098Z,93.24
2023-02-17T04:28:41.840Z,93.24
2023-02-17T04:29:42.093Z,93.24
2023-02-17T04:30:41.865Z,93.24
2023-02-17T04:31:42.229Z,93.33
2023-02-17T04:32:41.843Z,93.44
2023-02-17T04:33:42.132Z,93.33
2023-02-17T04:34:41.879Z,93.44
2023-02-17T04:35:41.615Z,93.44
2023-02-17T04:37:01.880Z,93.44
2023-02-17T04:37:41.602Z,93.44
2023-02-17T04:38:41.867Z,93.54
2023-02-17T04:39:41.601Z,93.54
2023-02-17T04:40:41.855Z,93.44
2023-02-17T04:41:41.619Z,93.54
2023-02-17T04:42:41.844Z,93.54
2023-02-17T04:43:41.657Z,93.54
2023-02-17T04:44:41.858Z,93.54
2023-02-17T04:45:41.615Z,93.54
2023-02-17T04:47:01.874Z,93.65
2023-02-17T04:47:41.609Z,93.65
2023-02-17T04:48:41.860Z,93.74
2023-02-17T04:49:41.605Z,93.74
2023-02-17T04:50:41.848Z,93.85
2023-02-17T04:51:41.611Z,93.85
2023-02-17T04:52:41.858Z,93.85
2023-02-17T04:53:41.609Z,93.85
2023-02-17T04:54:41.846Z,93.85
2023-02-17T04:55:41.611Z,93.95
2023-02-17T04:57:01.865Z,93.95
2023-02-17T04:57:41.625Z,93.95
2023-02-17T04:58:41.371Z,94.06
2023-02-17T04:59:41.628Z,93.95
2023-02-17T05:00:41.367Z,93.95
2023-02-17T05:01:41.699Z,93.95
2023-02-17T05:02:41.389Z,93.95
2023-02-17T05:03:41.637Z,94.06
2023-02-17T05:04:41.442Z,94.06
2023-02-17T05:05:41.648Z,94.11
2023-02-17T05:07:01.404Z,94.15
2023-02-17T05:07:41.639Z,94.11
2023-02-17T05:08:41.398Z,94.15
2023-02-17T05:09:41.678Z,94.26
2023-02-17T05:10:41.436Z,94.26
2023-02-17T05:11:41.767Z,94.36
2023-02-17T05:12:42.194Z,94.36
2023-02-17T05:13:41.719Z,94.36
2023-02-17T05:14:41.447Z,94.36
2023-02-17T05:15:41.267Z,94.46
2023-02-17T05:17:01.458Z,94.42
2023-02-17T05:17:41.699Z,94.42
2023-02-17T05:18:41.453Z,94.46
2023-02-17T05:19:41.219Z,94.46
2023-02-17T05:20:41.458Z,94.56
2023-02-17T05:21:41.215Z,94.67
2023-02-17T05:22:41.456Z,94.77
2023-02-17T05:23:41.338Z,94.87
2023-02-17T05:24:41.474Z,94.97
2023-02-17T05:25:41.210Z,95.07
2023-02-17T05:27:01.470Z,95.07
2023-02-17T05:27:41.209Z,95.18
2023-02-17T05:28:41.455Z,95.18
2023-02-17T05:29:41.220Z,95.28
2023-02-17T05:30:41.501Z,95.28
2023-02-17T05:31:41.304Z,95.28
2023-02-17T05:32:41.481Z,95.38
2023-02-17T05:33:41.242Z,95.38
2023-02-17T05:34:40.998Z,95.48
2023-02-17T05:35:41.257Z,95.59
2023-02-17T05:37:01.021Z,95.69
2023-02-17T05:37:41.267Z,95.69
2023-02-17T05:38:41.015Z,95.69
2023-02-17T05:39:41.270Z,95.69
2023-02-17T05:40:41.023Z,95.69
2023-02-17T05:41:41.268Z,95.69
2023-02-17T05:42:41.011Z,95.79
2023-02-17T05:43:41.275Z,95.79
2023-02-17T05:44:41.012Z,95.69
2023-02-17T05:45:41.286Z,95.69
2023-02-17T05:47:01.032Z,95.79
2023-02-17T05:47:41.278Z,95.79
2023-02-17T05:48:41.045Z,95.79
2023-02-17T05:49:41.290Z,95.79
2023-02-17T05:50:41.052Z,95.79
2023-02-17T05:51:41.313Z,95.69
2023-02-17T05:52:41.067Z,95.79
2023-02-17T05:53:40.815Z,95.79
2023-02-17T05:54:41.064Z,95.79
2023-02-17T05:55:40.814Z,95.69
2023-02-17T05:57:01.094Z,95.79
2023-02-17T05:57:40.841Z,95.79
2023-02-17T05:58:41.106Z,95.79
2023-02-17T05:59:40.835Z,95.79
2023-02-17T06:00:41.103Z,95.79
2023-02-17T06:01:40.850Z,95.79
2023-02-17T06:02:41.139Z,95.79
2023-02-17T06:03:40.836Z,95.79
2023-02-17T06:04:41.172Z,95.79
2023-02-17T06:05:40.837Z,95.69
2023-02-17T06:07:01.122Z,95.79
2023-02-17T06:07:40.847Z,95.79
2023-02-17T06:08:41.098Z,95.79
2023-02-17T06:09:40.843Z,95.79
2023-02-17T06:10:41.111Z,95.89
2023-02-17T06:11:40.866Z,95.89
2023-02-17T06:12:40.621Z,95.89
2023-02-17T06:13:40.861Z,95.89
2023-02-17T06:14:40.622Z,95.89
2023-02-17T06:15:40.872Z,96.00
2023-02-17T06:17:01.243Z,96.10
2023-02-17T06:17:40.892Z,96.00
2023-02-17T06:18:40.656Z,96.10
2023-02-17T06:19:40.904Z,96.00
2023-02-17T06:20:40.670Z,96.10
2023-02-17T06:21:40.921Z,96.20
2023-02-17T06:22:40.698Z,96.10
2023-02-17T06:23:40.924Z,96.20
2023-02-17T06:24:41.163Z,96.20
2023-02-17T06:25:40.942Z,96.20
2023-02-17T06:27:00.702Z,96.26
2023-02-17T06:27:40.924Z,96.30
2023-02-17T06:28:40.712Z,96.30
2023-02-17T06:29:40.456Z,96.30
2023-02-17T06:30:40.726Z,96.30
2023-02-17T06:31:40.536Z,96.30
2023-02-17T06:32:40.724Z,96.41
2023-02-17T06:33:40.462Z,96.41
2023-02-17T06:34:40.732Z,96.41
2023-02-17T06:35:40.477Z,96.41
2023-02-17T06:37:00.738Z,96.41
2023-02-17T06:37:40.481Z,96.36
2023-02-17T06:38:40.733Z,96.41
2023-02-17T06:39:40.474Z,96.41
2023-02-17T06:40:40.754Z,96.30
2023-02-17T06:41:40.504Z,96.41
2023-02-17T06:42:40.772Z,96.36
2023-02-17T06:43:40.504Z,96.41
2023-02-17T06:44:40.752Z,96.36
2023-02-17T06:45:40.515Z,96.36
2023-02-17T06:47:00.762Z,96.36
2023-02-17T06:47:40.483Z,96.36
2023-02-17T06:48:40.242Z,96.36
2023-02-17T06:49:41.004Z,96.36
2023-02-17T06:50:40.259Z,96.36
2023-02-17T06:51:40.494Z,96.41
2023-02-17T06:52:40.277Z,96.46
2023-02-17T06:53:40.535Z,96.46
2023-02-17T06:54:40.285Z,96.46
2023-02-17T06:55:40.548Z,96.46
2023-02-17T06:57:01.882Z,96.46
2023-02-17T06:57:40.160Z,96.56
2023-02-17T06:58:40.423Z,96.56
2023-02-17T06:59:40.149Z,96.46
2023-02-17T07:00:41.866Z,96.46
2023-02-17T07:01:40.348Z,96.46
2023-02-17T07:02:40.673Z,96.46
2023-02-17T07:03:40.190Z,96.56
2023-02-17T07:04:40.444Z,96.56
2023-02-17T07:05:40.450Z,96.46
2023-02-17T07:07:00.592Z,96.46
2023-02-17T07:07:40.213Z,96.36
2023-02-17T07:08:40.460Z,96.46
2023-02-17T07:09:40.193Z,96.46
2023-02-17T07:10:40.495Z,96.46
2023-02-17T07:11:40.225Z,96.46
2023-02-17T07:12:41.434Z,96.46
2023-02-17T07:13:40.295Z,96.46
2023-02-17T07:14:41.488Z,96.46
2023-02-17T07:15:40.316Z,96.46
2023-02-17T07:17:00.115Z,96.56
2023-02-17T07:17:40.333Z,96.46
2023-02-17T07:18:40.102Z,96.46
2023-02-17T07:19:40.328Z,96.46
2023-02-17T07:20:40.088Z,96.46
2023-02-17T07:21:40.342Z,96.46
2023-02-17T07:22:40.086Z,96.56
2023-02-17T07:23:40.343Z,96.46
2023-02-17T07:24:40.075Z,96.56
2023-02-17T07:25:40.339Z,96.56
2023-02-17T07:27:00.119Z,96.56
2023-02-17T07:27:39.837Z,96.56
2023-02-17T07:28:40.110Z,96.56
2023-02-17T07:29:39.826Z,96.46
2023-02-17T07:30:40.094Z,96.46
2023-02-17T07:31:39.882Z,96.36
2023-02-17T07:32:40.103Z,96.36
2023-02-17T07:33:39.836Z,96.31
2023-02-17T07:34:40.124Z,96.36
2023-02-17T07:35:39.863Z,96.31
2023-02-17T07:37:00.836Z,96.31
2023-02-17T07:37:39.940Z,96.21
2023-02-17T07:38:40.222Z,96.21
2023-02-17T07:39:39.951Z,96.21
2023-02-17T07:40:39.709Z,96.21
2023-02-17T07:41:39.992Z,96.21
2023-02-17T07:42:39.740Z,96.21
2023-02-17T07:43:40.005Z,96.21
2023-02-17T07:44:39.761Z,96.21
2023-02-17T07:45:40.054Z,96.11
2023-02-17T07:47:00.770Z,96.01
2023-02-17T07:47:40.039Z,96.01
2023-02-17T07:48:39.830Z,96.01
2023-02-17T07:49:40.054Z,96.01
2023-02-17T07:50:39.828Z,95.90
2023-02-17T07:51:39.557Z,95.90
2023-02-17T07:52:39.826Z,95.80
2023-02-17T07:53:39.585Z,95.76
2023-02-17T07:54:39.872Z,95.76
2023-02-17T07:55:39.581Z,95.76
2023-02-17T07:56:59.863Z,95.65
2023-02-17T07:57:39.583Z,95.65
2023-02-17T07:58:41.409Z,95.56
2023-02-17T07:59:41.220Z,95.65
2023-02-17T08:00:40.302Z,95.65
2023-02-17T08:01:40.563Z,95.65
2023-02-17T08:02:41.218Z,95.45
2023-02-17T08:03:39.576Z,95.65
2023-02-17T08:04:39.807Z,95.56
2023-02-17T08:05:39.582Z,95.45
2023-02-17T08:07:00.837Z,95.35
2023-02-17T08:07:39.725Z,95.35
2023-02-17T08:08:39.480Z,95.35
2023-02-17T08:09:39.722Z,95.35
2023-02-17T08:10:39.525Z,95.25
2023-02-17T08:11:39.774Z,95.25
2023-02-17T08:12:41.014Z,95.25
2023-02-17T08:13:39.885Z,95.25
2023-02-17T08:14:39.583Z,95.25
2023-02-17T08:15:39.347Z,95.10
2023-02-17T08:17:01.219Z,95.00
2023-02-17T08:17:39.490Z,95.00
2023-02-17T08:18:39.747Z,94.90
2023-02-17T08:19:47.970Z,94.79
2023-02-17T08:20:40.282Z,94.90
2023-02-17T08:21:39.551Z,94.90
2023-02-17T08:22:39.295Z,94.79
2023-02-17T08:23:39.550Z,94.79
2023-02-17T08:24:39.360Z,94.79
2023-02-17T08:25:39.588Z,94.79
2023-02-17T08:26:59.422Z,94.90
2023-02-17T08:27:39.627Z,94.79
2023-02-17T08:28:39.406Z,94.70
2023-02-17T08:29:39.664Z,94.38
2023-02-17T08:30:39.566Z,94.38
2023-02-17T08:31:39.297Z,94.38
2023-02-17T08:32:39.464Z,94.49
2023-02-17T08:33:39.208Z,94.45
2023-02-17T08:34:39.856Z,94.24
2023-02-17T08:35:41.499Z,94.24
2023-02-17T08:36:59.202Z,94.45
2023-02-17T08:37:40.949Z,94.34
2023-02-17T08:38:40.886Z,94.34
2023-02-17T08:39:40.728Z,94.34
2023-02-17T08:40:39.812Z,94.29
2023-02-17T08:41:39.446Z,94.18
2023-02-17T08:42:39.174Z,94.29
2023-02-17T08:43:39.451Z,94.29
2023-02-17T08:44:39.265Z,94.49
2023-02-17T08:45:39.456Z,94.49
2023-02-17T08:46:59.819Z,94.34
2023-02-17T08:47:39.534Z,94.34
2023-02-17T08:48:40.736Z,94.24
2023-02-17T08:49:39.056Z,94.04
2023-02-17T08:50:40.813Z,93.93
2023-02-17T08:51:39.066Z,93.73
2023-02-17T08:52:40.267Z,93.18
2023-02-17T08:53:39.093Z,93.18
2023-02-17T08:54:39.446Z,93.07
2023-02-17T08:55:48.889Z,93.18
2023-02-17T08:57:00.545Z,93.18
2023-02-17T08:57:39.288Z,93.18
2023-02-17T08:58:39.024Z,93.18
2023-02-17T08:59:39.256Z,93.28
2023-02-17T09:00:39.022Z,93.38
2023-02-17T09:01:39.444Z,93.28
2023-02-17T09:02:39.524Z,93.18
2023-02-17T09:03:38.905Z,93.18
2023-02-17T09:04:40.500Z,93.18
2023-02-17T09:05:38.859Z,93.18
2023-02-17T09:06:59.816Z,92.97
2023-02-17T09:07:38.991Z,92.87
2023-02-17T09:08:40.721Z,92.77
2023-02-17T09:09:39.026Z,92.77
2023-02-17T09:10:39.298Z,92.87
2023-02-17T09:11:39.057Z,92.87
2023-02-17T09:12:40.261Z,92.52
2023-02-17T09:13:39.320Z,91.52
2023-02-17T09:14:40.330Z,89.36
2023-02-17T09:15:39.179Z,88.32
2023-02-17T09:17:00.393Z,89.03
2023-02-17T09:17:38.688Z,89.48
2023-02-17T09:18:39.024Z,89.75
2023-02-17T09:19:38.777Z,89.50
2023-02-17T09:20:38.972Z,87.93
2023-02-17T09:21:38.722Z,87.23
2023-02-17T09:22:39.070Z,87.67
2023-02-17T09:23:38.758Z,88.08
2023-02-17T09:24:39.060Z,88.42
2023-02-17T09:25:38.886Z,88.83
2023-02-17T09:27:00.642Z,89.54
2023-02-17T09:27:38.992Z,89.34
2023-02-17T09:28:38.695Z,88.59
2023-02-17T09:29:38.949Z,88.18
2023-02-17T09:30:38.773Z,88.42
2023-02-17T09:31:38.999Z,89.03
2023-02-17T09:32:38.747Z,89.03
2023-02-17T09:33:38.966Z,89.14
2023-02-17T09:34:38.772Z,88.53
2023-02-17T09:35:38.985Z,88.83
2023-02-17T09:37:00.244Z,88.93
2023-02-17T09:37:38.570Z,88.93
2023-02-17T09:38:38.858Z,89.14
2023-02-17T09:39:38.548Z,89.38
2023-02-17T09:40:38.884Z,89.14
2023-02-17T09:41:38.599Z,88.93
2023-02-17T09:42:38.851Z,89.03
2023-02-17T09:43:38.600Z,89.24
2023-02-17T09:44:38.842Z,89.34
2023-02-17T09:45:38.614Z,89.24
2023-02-17T09:47:02.468Z,89.38
2023-02-17T09:47:38.683Z,89.48
2023-02-17T09:48:38.429Z,89.69
2023-02-17T09:49:38.698Z,89.64
2023-02-17T09:50:38.448Z,89.59
2023-02-17T09:51:38.691Z,89.69
2023-02-17T09:52:38.455Z,89.69
2023-02-17T09:53:38.723Z,89.79
2023-02-17T09:54:38.481Z,89.89
2023-02-17T09:55:38.839Z,89.89
2023-02-17T09:56:59.388Z,89.44
2023-02-17T09:57:38.474Z,89.34
2023-02-17T09:58:38.929Z,89.34
2023-02-17T09:59:38.422Z,89.18
2023-02-17T10:00:38.679Z,89.38
2023-02-17T10:01:38.451Z,89.44
2023-02-17T10:02:38.700Z,89.28
2023-02-17T10:03:38.568Z,89.07
2023-02-17T10:04:38.304Z,89.18
2023-02-17T10:05:38.521Z,89.28
2023-02-17T10:06:58.515Z,89.48
2023-02-17T10:07:38.663Z,89.28
2023-02-17T10:08:38.449Z,89.38
2023-02-17T10:09:38.248Z,89.59
2023-02-17T10:10:38.454Z,89.59
2023-02-17T10:11:38.216Z,89.48
2023-02-17T10:12:38.473Z,89.48
2023-02-17T10:13:38.267Z,89.48
2023-02-17T10:14:38.462Z,89.48
2023-02-17T10:15:39.882Z,89.48
2023-02-17T10:16:58.183Z,89.38
2023-02-17T10:17:39.441Z,89.38
2023-02-17T10:18:39.814Z,89.18
2023-02-17T10:19:40.052Z,89.28
2023-02-17T10:20:38.840Z,89.38
2023-02-17T10:21:39.724Z,89.38
2023-02-17T10:22:38.516Z,89.07
2023-02-17T10:23:40.089Z,88.87
2023-02-17T10:24:39.935Z,88.87
2023-02-17T10:25:39.734Z,88.77
2023-02-17T10:26:58.577Z,88.67
2023-02-17T10:27:39.819Z,88.57
2023-02-17T10:28:39.643Z,88.42
2023-02-17T10:29:39.444Z,88.02
2023-02-17T10:30:39.365Z,88.12
2023-02-17T10:31:39.306Z,87.81
2023-02-17T10:32:38.994Z,87.71
2023-02-17T10:33:39.831Z,87.93
2023-02-17T10:34:39.549Z,84.40
2023-02-17T10:35:39.125Z,84.30
2023-02-17T10:36:58.314Z,84.64
2023-02-17T10:37:38.888Z,84.84
2023-02-17T10:38:39.488Z,84.80
2023-02-17T10:39:39.791Z,83.00
2023-02-17T10:40:39.604Z,82.35
2023-02-17T10:41:39.443Z,81.67
2023-02-17T10:42:39.788Z,79.24
2023-02-17T10:43:38.801Z,79.34
2023-02-17T10:44:38.952Z,79.88
2023-02-17T10:45:39.741Z,80.29
2023-02-17T10:46:58.088Z,80.39
2023-02-17T10:47:38.870Z,80.29
2023-02-17T10:48:38.730Z,80.08
2023-02-17T10:49:39.575Z,79.98
2023-02-17T10:50:38.577Z,80.19
2023-02-17T10:51:39.678Z,80.32
2023-02-17T10:52:38.153Z,80.73
2023-02-17T10:53:38.122Z,81.27
2023-02-17T10:54:39.372Z,81.72
2023-02-17T10:55:38.677Z,82.53
2023-02-17T10:56:57.273Z,83.08
2023-02-17T10:57:39.496Z,83.38
2023-02-17T10:58:38.917Z,83.48
2023-02-17T10:59:39.236Z,83.59
2023-02-17T11:00:39.576Z,83.93
2023-02-17T11:01:39.350Z,84.13
2023-02-17T11:02:38.382Z,84.23
2023-02-17T11:03:38.156Z,84.44
2023-02-17T11:04:39.407Z,84.20
2023-02-17T11:05:39.229Z,84.40
2023-02-17T11:06:58.059Z,83.89
2023-02-17T11:07:39.323Z,83.69
2023-02-17T11:08:38.374Z,83.79
2023-02-17T11:09:39.485Z,83.54
2023-02-17T11:10:39.342Z,82.94
2023-02-17T11:11:38.682Z,82.94
2023-02-17T11:12:39.483Z,82.73
2023-02-17T11:13:39.351Z,82.64
2023-02-17T11:14:38.377Z,82.73
2023-02-17T11:15:39.443Z,82.84
2023-02-17T11:16:57.778Z,82.84
2023-02-17T11:17:38.208Z,82.39
2023-02-17T11:18:39.385Z,82.09
2023-02-17T11:19:38.384Z,82.09
2023-02-17T11:20:38.944Z,81.88
2023-02-17T11:21:39.274Z,81.58
2023-02-17T11:22:39.065Z,81.44
2023-02-17T11:23:39.376Z,81.10
2023-02-17T11:24:39.211Z,80.69
2023-02-17T11:25:38.692Z,80.73
2023-02-17T11:26:57.507Z,80.83
2023-02-17T11:27:39.257Z,80.83
2023-02-17T11:28:39.066Z,80.87
2023-02-17T11:29:38.918Z,81.48
2023-02-17T11:30:38.392Z,81.68
2023-02-17T11:31:38.605Z,81.48
2023-02-17T11:32:38.051Z,81.48
2023-02-17T11:33:39.201Z,81.58
2023-02-17T11:34:37.652Z,81.68
2023-02-17T11:35:38.829Z,81.48
2023-02-17T11:36:57.648Z,81.68
2023-02-17T11:37:38.894Z,81.58
2023-02-17T11:38:39.171Z,81.58
2023-02-17T11:39:38.962Z,81.48
2023-02-17T11:40:38.792Z,81.72
2023-02-17T11:41:39.191Z,81.99
2023-02-17T11:42:38.393Z,82.09
2023-02-17T11:43:38.329Z,80.90
2023-02-17T11:44:39.178Z,80.08
2023-02-17T11:45:38.524Z,80.08
2023-02-17T11:46:57.353Z,78.92
2023-02-17T11:47:37.884Z,76.90
2023-02-17T11:48:37.915Z,75.34
2023-02-17T11:49:38.202Z,74.70
2023-02-17T11:50:41.558Z,75.65
2023-02-17T11:51:38.808Z,76.15
2023-02-17T11:52:38.611Z,76.29
2023-02-17T11:53:38.942Z,76.73
2023-02-17T11:54:37.893Z,77.07
2023-02-17T11:55:38.558Z,77.78
2023-02-17T11:56:57.386Z,77.98
2023-02-17T11:57:38.660Z,77.88
2023-02-17T11:58:38.946Z,77.48
2023-02-17T11:59:38.799Z,77.37
2023-02-17T12:00:36.884Z,77.03
2023-02-17T12:01:37.193Z,77.03
2023-02-17T12:02:38.826Z,76.83
2023-02-17T12:03:38.605Z,76.73
2023-02-17T12:04:39.001Z,76.53
2023-02-17T12:05:38.787Z,76.93
2023-02-17T12:06:57.143Z,76.83
2023-02-17T12:07:38.839Z,77.03
2023-02-17T12:08:38.649Z,77.03
2023-02-17T12:09:38.505Z,77.48
2023-02-17T12:10:38.843Z,76.83
2023-02-17T12:11:38.607Z,76.93
2023-02-17T12:12:38.038Z,76.73
2023-02-17T12:13:38.800Z,76.43
2023-02-17T12:14:38.632Z,76.43
2023-02-17T12:15:37.662Z,76.83
2023-02-17T12:16:57.404Z,76.73
2023-02-17T12:17:38.556Z,77.03
2023-02-17T12:18:37.877Z,76.83
2023-02-17T12:19:38.701Z,76.59
2023-02-17T12:20:38.549Z,75.79
2023-02-17T12:21:38.398Z,75.75
2023-02-17T12:22:38.662Z,75.10
2023-02-17T12:23:37.914Z,73.96
2023-02-17T12:24:38.321Z,73.46
2023-02-17T12:25:38.631Z,74.06
2023-02-17T12:26:56.940Z,71.91
2023-02-17T12:27:40.676Z,71.20
2023-02-17T12:28:37.697Z,70.79
2023-02-17T12:29:37.413Z,71.87
2023-02-17T12:30:38.507Z,72.38
2023-02-17T12:31:38.245Z,72.61
2023-02-17T12:32:38.541Z,72.81
2023-02-17T12:33:38.347Z,73.46
2023-02-17T12:34:37.467Z,73.55
2023-02-17T12:35:37.426Z,73.86
2023-02-17T12:36:56.798Z,73.08
2023-02-17T12:37:38.040Z,72.81
2023-02-17T12:38:38.333Z,73.25
2023-02-17T12:39:38.136Z,72.81
2023-02-17T12:40:37.427Z,72.61
2023-02-17T12:41:37.575Z,72.71
2023-02-17T12:42:38.369Z,73.25
2023-02-17T12:43:38.237Z,73.25
2023-02-17T12:44:37.520Z,73.66
2023-02-17T12:45:37.596Z,73.79
2023-02-17T12:46:56.945Z,74.74
2023-02-17T12:47:38.156Z,74.63
2023-02-17T12:48:38.438Z,74.84
2023-02-17T12:49:38.258Z,75.14
2023-02-17T12:50:36.726Z,75.45
2023-02-17T12:51:37.828Z,75.79
2023-02-17T12:52:37.458Z,76.29